sensor_id;sensor_type;location;lat;lon;timestamp;pressure;altitude;pressure_sealevel;temperature;humidity
40940;BME280;26666;50.156;7.700;2022-11-15T00:03:27;100014.06;;;10.90;100.00
40940;BME280;26666;50.156;7.700;2022-11-15T00:08:31;100011.94;;;11.03;100.00
40940;BME280;26666;50.156;7.700;2022-11-15T00:13:32;100013.75;;;11.02;100.00
40940;BME280;26666;50.156;7.700;2022-11-15T00:18:35;100007.19;;;11.16;100.00
40940;BME280;26666;50.156;7.700;2022-11-15T00:23:37;100021.63;;;11.22;100.00
40940;BME280;26666;50.156;7.700;2022-11-15T00:28:39;100016.69;;;11.09;100.00
40940;BME280;26666;50.156;7.700;2022-11-15T00:33:43;100021.28;;;11.07;100.00
40940;BME280;26666;50.156;7.700;2022-11-15T00:38:44;100017.09;;;10.95;100.00
40940;BME280;26666;50.156;7.700;2022-11-15T00:43:46;100011.00;;;10.94;100.00
40940;BME280;26666;50.156;7.700;2022-11-15T00:48:48;100014.47;;;10.95;100.00
40940;BME280;26666;50.156;7.700;2022-11-15T00:53:49;100020.19;;;10.90;100.00
40940;BME280;26666;50.156;7.700;2022-11-15T00:58:50;100029.06;;;10.89;100.00
40940;BME280;26666;50.156;7.700;2022-11-15T01:03:52;100006.97;;;10.90;100.00
40940;BME280;26666;50.156;7.700;2022-11-15T01:09:00;100033.09;;;10.93;100.00
40940;BME280;26666;50.156;7.700;2022-11-15T01:14:01;100030.31;;;10.95;100.00
40940;BME280;26666;50.156;7.700;2022-11-15T01:19:03;100031.59;;;10.91;100.00
40940;BME280;26666;50.156;7.700;2022-11-15T01:24:05;100014.47;;;10.95;100.00
40940;BME280;26666;50.156;7.700;2022-11-15T01:29:06;100013.19;;;10.99;100.00
40940;BME280;26666;50.156;7.700;2022-11-15T01:34:08;99997.50;;;10.78;100.00
40940;BME280;26666;50.156;7.700;2022-11-15T01:39:09;99990.31;;;10.60;100.00
40940;BME280;26666;50.156;7.700;2022-11-15T01:49:48;99986.22;;;10.85;100.00
40940;BME280;26666;50.156;7.700;2022-11-15T01:54:55;99989.03;;;10.84;100.00
40940;BME280;26666;50.156;7.700;2022-11-15T01:59:59;99987.38;;;10.73;100.00
40940;BME280;26666;50.156;7.700;2022-11-15T02:05:01;99986.53;;;10.92;100.00
40940;BME280;26666;50.156;7.700;2022-11-15T02:10:09;99972.19;;;10.85;100.00
40940;BME280;26666;50.156;7.700;2022-11-15T02:15:11;99966.59;;;11.08;100.00
40940;BME280;26666;50.156;7.700;2022-11-15T02:30:47;99938.06;;;11.11;100.00
40940;BME280;26666;50.156;7.700;2022-11-15T02:41:06;99934.41;;;11.12;100.00
40940;BME280;26666;50.156;7.700;2022-11-15T02:46:18;99933.19;;;11.07;100.00
40940;BME280;26666;50.156;7.700;2022-11-15T02:51:23;99940.16;;;11.08;100.00
40940;BME280;26666;50.156;7.700;2022-11-15T02:56:24;99930.66;;;11.05;100.00
40940;BME280;26666;50.156;7.700;2022-11-15T03:07:03;99928.75;;;11.07;100.00
40940;BME280;26666;50.156;7.700;2022-11-15T03:12:14;99914.53;;;11.08;100.00
40940;BME280;26666;50.156;7.700;2022-11-15T03:17:29;99921.72;;;11.16;100.00
40940;BME280;26666;50.156;7.700;2022-11-15T03:22:43;99911.88;;;11.08;100.00
40940;BME280;26666;50.156;7.700;2022-11-15T03:27:49;99907.69;;;11.15;100.00
40940;BME280;26666;50.156;7.700;2022-11-15T03:32:54;99924.38;;;11.16;100.00
40940;BME280;26666;50.156;7.700;2022-11-15T03:38:08;99920.44;;;10.92;100.00
40940;BME280;26666;50.156;7.700;2022-11-15T03:48:25;99923.41;;;10.70;100.00
40940;BME280;26666;50.156;7.700;2022-11-15T03:53:29;99924.81;;;10.64;100.00
40940;BME280;26666;50.156;7.700;2022-11-15T03:58:31;99932.34;;;10.59;100.00
40940;BME280;26666;50.156;7.700;2022-11-15T04:03:33;99919.81;;;10.61;100.00
40940;BME280;26666;50.156;7.700;2022-11-15T04:08:35;99927.63;;;10.62;100.00
40940;BME280;26666;50.156;7.700;2022-11-15T04:13:36;99920.50;;;10.73;100.00
40940;BME280;26666;50.156;7.700;2022-11-15T04:18:38;99914.41;;;10.62;100.00
40940;BME280;26666;50.156;7.700;2022-11-15T04:23:39;99921.09;;;10.57;100.00
40940;BME280;26666;50.156;7.700;2022-11-15T04:28:41;99912.44;;;10.64;100.00
40940;BME280;26666;50.156;7.700;2022-11-15T04:33:42;99917.75;;;10.55;100.00
40940;BME280;26666;50.156;7.700;2022-11-15T04:38:44;99919.53;;;10.54;100.00
40940;BME280;26666;50.156;7.700;2022-11-15T04:43:45;99912.16;;;10.58;100.00
40940;BME280;26666;50.156;7.700;2022-11-15T04:48:47;99915.94;;;10.45;100.00
40940;BME280;26666;50.156;7.700;2022-11-15T04:53:48;99908.72;;;10.38;100.00
40940;BME280;26666;50.156;7.700;2022-11-15T04:58:50;99896.34;;;10.38;100.00
40940;BME280;26666;50.156;7.700;2022-11-15T05:03:51;99899.56;;;10.32;100.00
40940;BME280;26666;50.156;7.700;2022-11-15T05:08:53;99900.91;;;10.26;100.00
40940;BME280;26666;50.156;7.700;2022-11-15T05:13:55;99913.88;;;10.20;100.00
40940;BME280;26666;50.156;7.700;2022-11-15T05:18:56;99915.97;;;10.36;100.00
40940;BME280;26666;50.156;7.700;2022-11-15T05:23:58;99918.03;;;10.32;100.00
40940;BME280;26666;50.156;7.700;2022-11-15T05:28:59;99913.00;;;10.19;100.00
40940;BME280;26666;50.156;7.700;2022-11-15T05:34:03;99918.28;;;10.10;100.00
40940;BME280;26666;50.156;7.700;2022-11-15T05:39:06;99904.00;;;10.02;100.00
40940;BME280;26666;50.156;7.700;2022-11-15T05:44:12;99901.63;;;9.90;100.00
40940;BME280;26666;50.156;7.700;2022-11-15T05:49:17;99897.72;;;9.84;100.00
40940;BME280;26666;50.156;7.700;2022-11-15T05:54:21;99885.66;;;9.91;100.00
40940;BME280;26666;50.156;7.700;2022-11-15T05:59:24;99888.00;;;9.84;100.00
40940;BME280;26666;50.156;7.700;2022-11-15T06:04:26;99905.63;;;9.84;100.00
40940;BME280;26666;50.156;7.700;2022-11-15T06:09:27;99911.06;;;9.92;100.00
40940;BME280;26666;50.156;7.700;2022-11-15T06:14:29;99922.31;;;9.94;100.00
40940;BME280;26666;50.156;7.700;2022-11-15T06:19:30;99919.28;;;9.99;100.00
40940;BME280;26666;50.156;7.700;2022-11-15T06:24:32;99910.53;;;9.89;100.00
40940;BME280;26666;50.156;7.700;2022-11-15T06:29:33;99924.25;;;9.92;100.00
40940;BME280;26666;50.156;7.700;2022-11-15T06:34:35;99917.19;;;9.93;100.00
40940;BME280;26666;50.156;7.700;2022-11-15T06:39:36;99922.47;;;9.93;100.00
40940;BME280;26666;50.156;7.700;2022-11-15T06:44:38;99914.13;;;9.97;100.00
40940;BME280;26666;50.156;7.700;2022-11-15T06:49:40;99911.22;;;10.00;100.00
40940;BME280;26666;50.156;7.700;2022-11-15T06:54:41;99920.78;;;10.01;100.00
40940;BME280;26666;50.156;7.700;2022-11-15T06:59:43;99925.25;;;10.11;100.00
40940;BME280;26666;50.156;7.700;2022-11-15T07:04:44;99925.13;;;10.22;100.00
40940;BME280;26666;50.156;7.700;2022-11-15T07:09:46;99922.19;;;10.15;100.00
40940;BME280;26666;50.156;7.700;2022-11-15T07:14:47;99910.53;;;10.08;100.00
40940;BME280;26666;50.156;7.700;2022-11-15T07:19:49;99920.94;;;10.10;100.00
40940;BME280;26666;50.156;7.700;2022-11-15T07:24:50;99923.56;;;10.10;100.00
40940;BME280;26666;50.156;7.700;2022-11-15T07:29:52;99928.03;;;10.09;100.00
40940;BME280;26666;50.156;7.700;2022-11-15T07:34:53;99930.66;;;10.19;100.00
40940;BME280;26666;50.156;7.700;2022-11-15T07:39:55;99938.59;;;10.29;100.00
40940;BME280;26666;50.156;7.700;2022-11-15T07:44:57;99945.25;;;10.23;100.00
40940;BME280;26666;50.156;7.700;2022-11-15T07:49:58;99930.78;;;10.27;100.00
40940;BME280;26666;50.156;7.700;2022-11-15T07:54:59;99930.28;;;10.33;100.00
40940;BME280;26666;50.156;7.700;2022-11-15T08:00:02;99929.56;;;10.31;100.00
40940;BME280;26666;50.156;7.700;2022-11-15T08:05:04;99940.97;;;10.41;100.00
40940;BME280;26666;50.156;7.700;2022-11-15T08:10:06;99928.16;;;10.46;100.00
40940;BME280;26666;50.156;7.700;2022-11-15T08:15:08;99923.44;;;10.60;100.00
40940;BME280;26666;50.156;7.700;2022-11-15T08:20:10;99924.66;;;10.65;100.00
40940;BME280;26666;50.156;7.700;2022-11-15T08:25:11;99925.31;;;10.87;100.00
40940;BME280;26666;50.156;7.700;2022-11-15T08:30:13;99929.97;;;11.03;100.00
40940;BME280;26666;50.156;7.700;2022-11-15T08:40:16;99926.47;;;11.12;100.00
40940;BME280;26666;50.156;7.700;2022-11-15T08:45:18;99919.09;;;11.16;100.00
40940;BME280;26666;50.156;7.700;2022-11-15T08:50:19;99923.38;;;11.27;100.00
40940;BME280;26666;50.156;7.700;2022-11-15T08:55:21;99919.47;;;11.31;100.00
40940;BME280;26666;50.156;7.700;2022-11-15T09:00:25;99921.59;;;11.45;100.00
40940;BME280;26666;50.156;7.700;2022-11-15T09:05:26;99911.25;;;11.52;100.00
40940;BME280;26666;50.156;7.700;2022-11-15T09:10:28;99894.47;;;11.43;100.00
40940;BME280;26666;50.156;7.700;2022-11-15T09:15:29;99886.75;;;11.50;100.00
40940;BME280;26666;50.156;7.700;2022-11-15T09:20:31;99891.41;;;11.66;100.00
40940;BME280;26666;50.156;7.700;2022-11-15T09:25:32;99894.75;;;11.68;100.00
40940;BME280;26666;50.156;7.700;2022-11-15T09:30:34;99902.00;;;11.66;100.00
40940;BME280;26666;50.156;7.700;2022-11-15T09:35:35;99880.22;;;11.72;100.00
40940;BME280;26666;50.156;7.700;2022-11-15T09:40:37;99884.50;;;11.73;100.00
40940;BME280;26666;50.156;7.700;2022-11-15T09:45:57;99882.00;;;11.53;100.00
40940;BME280;26666;50.156;7.700;2022-11-15T09:51:04;99881.16;;;11.53;100.00
40940;BME280;26666;50.156;7.700;2022-11-15T09:56:14;99877.88;;;11.87;100.00
40940;BME280;26666;50.156;7.700;2022-11-15T10:06:39;99867.00;;;11.72;100.00
40940;BME280;26666;50.156;7.700;2022-11-15T10:11:42;99851.78;;;11.56;100.00
40940;BME280;26666;50.156;7.700;2022-11-15T10:17:09;99837.47;;;11.67;100.00
40940;BME280;26666;50.156;7.700;2022-11-15T10:22:53;99834.22;;;11.73;100.00
40940;BME280;26666;50.156;7.700;2022-11-15T10:28:00;99823.66;;;11.73;100.00
40940;BME280;26666;50.156;7.700;2022-11-15T10:33:31;99809.59;;;11.90;100.00
40940;BME280;26666;50.156;7.700;2022-11-15T10:38:54;99807.63;;;11.92;100.00
40940;BME280;26666;50.156;7.700;2022-11-15T10:54:40;99766.06;;;12.11;100.00
40940;BME280;26666;50.156;7.700;2022-11-15T10:59:46;99759.06;;;12.01;100.00
40940;BME280;26666;50.156;7.700;2022-11-15T11:04:51;99741.75;;;12.15;100.00
40940;BME280;26666;50.156;7.700;2022-11-15T11:10:17;99744.09;;;12.18;100.00
40940;BME280;26666;50.156;7.700;2022-11-15T11:15:39;99746.13;;;12.25;100.00
40940;BME280;26666;50.156;7.700;2022-11-15T11:20:49;99735.53;;;12.25;100.00
40940;BME280;26666;50.156;7.700;2022-11-15T11:42:04;99716.19;;;12.32;100.00
40940;BME280;26666;50.156;7.700;2022-11-15T11:47:23;99710.09;;;12.32;100.00
40940;BME280;26666;50.156;7.700;2022-11-15T11:52:29;99717.19;;;12.31;100.00
40940;BME280;26666;50.156;7.700;2022-11-15T11:58:26;99715.50;;;12.22;100.00
40940;BME280;26666;50.156;7.700;2022-11-15T12:08:28;99694.66;;;12.27;100.00
40940;BME280;26666;50.156;7.700;2022-11-15T12:13:32;99690.50;;;12.25;100.00
40940;BME280;26666;50.156;7.700;2022-11-15T12:18:35;99683.41;;;12.33;100.00
40940;BME280;26666;50.156;7.700;2022-11-15T12:23:49;99674.03;;;12.47;100.00
40940;BME280;26666;50.156;7.700;2022-11-15T12:29:03;99662.56;;;12.30;100.00
40940;BME280;26666;50.156;7.700;2022-11-15T12:34:35;99651.41;;;12.18;100.00
40940;BME280;26666;50.156;7.700;2022-11-15T12:40:05;99653.94;;;12.28;100.00
40940;BME280;26666;50.156;7.700;2022-11-15T12:45:44;99644.28;;;12.19;100.00
40940;BME280;26666;50.156;7.700;2022-11-15T13:01:06;99622.66;;;12.32;100.00
40940;BME280;26666;50.156;7.700;2022-11-15T13:06:10;99619.22;;;12.39;100.00
40940;BME280;26666;50.156;7.700;2022-11-15T13:11:45;99602.53;;;12.55;100.00
40940;BME280;26666;50.156;7.700;2022-11-15T13:16:46;99603.34;;;12.48;100.00
40940;BME280;26666;50.156;7.700;2022-11-15T13:21:49;99597.16;;;12.39;100.00
40940;BME280;26666;50.156;7.700;2022-11-15T13:26:51;99583.41;;;12.35;100.00
40940;BME280;26666;50.156;7.700;2022-11-15T13:31:52;99569.84;;;12.30;100.00
40940;BME280;26666;50.156;7.700;2022-11-15T13:36:54;99565.53;;;12.37;100.00
40940;BME280;26666;50.156;7.700;2022-11-15T13:41:55;99560.41;;;12.36;100.00
40940;BME280;26666;50.156;7.700;2022-11-15T13:47:14;99549.97;;;12.34;100.00
40940;BME280;26666;50.156;7.700;2022-11-15T13:52:16;99541.97;;;12.18;100.00
40940;BME280;26666;50.156;7.700;2022-11-15T13:57:24;99533.28;;;12.34;100.00
40940;BME280;26666;50.156;7.700;2022-11-15T14:02:30;99527.16;;;12.41;100.00
40940;BME280;26666;50.156;7.700;2022-11-15T14:07:32;99523.47;;;12.26;100.00
40940;BME280;26666;50.156;7.700;2022-11-15T14:12:35;99506.13;;;12.32;100.00
40940;BME280;26666;50.156;7.700;2022-11-15T14:17:37;99497.00;;;12.42;100.00
40940;BME280;26666;50.156;7.700;2022-11-15T14:23:00;99476.47;;;12.36;100.00
40940;BME280;26666;50.156;7.700;2022-11-15T14:28:28;99471.03;;;12.30;100.00
40940;BME280;26666;50.156;7.700;2022-11-15T14:33:35;99467.88;;;12.34;100.00
40940;BME280;26666;50.156;7.700;2022-11-15T14:38:37;99456.25;;;12.19;100.00
40940;BME280;26666;50.156;7.700;2022-11-15T14:43:39;99448.47;;;12.17;100.00
40940;BME280;26666;50.156;7.700;2022-11-15T14:48:40;99450.31;;;12.17;100.00
40940;BME280;26666;50.156;7.700;2022-11-15T14:53:43;99434.41;;;12.25;100.00
40940;BME280;26666;50.156;7.700;2022-11-15T14:58:45;99427.28;;;12.26;100.00
40940;BME280;26666;50.156;7.700;2022-11-15T15:03:46;99428.47;;;12.48;100.00
40940;BME280;26666;50.156;7.700;2022-11-15T15:08:48;99421.34;;;12.32;100.00
40940;BME280;26666;50.156;7.700;2022-11-15T15:13:49;99417.69;;;12.33;100.00
40940;BME280;26666;50.156;7.700;2022-11-15T15:18:51;99406.44;;;12.31;100.00
40940;BME280;26666;50.156;7.700;2022-11-15T15:23:53;99404.13;;;12.36;100.00
40940;BME280;26666;50.156;7.700;2022-11-15T15:28:55;99410.41;;;12.35;100.00
40940;BME280;26666;50.156;7.700;2022-11-15T15:33:57;99405.78;;;12.37;100.00
40940;BME280;26666;50.156;7.700;2022-11-15T15:38:58;99407.09;;;12.33;100.00
40940;BME280;26666;50.156;7.700;2022-11-15T15:43:59;99405.78;;;12.29;100.00
40940;BME280;26666;50.156;7.700;2022-11-15T15:49:01;99399.66;;;12.28;100.00
40940;BME280;26666;50.156;7.700;2022-11-15T15:54:03;99404.47;;;12.25;100.00
40940;BME280;26666;50.156;7.700;2022-11-15T15:59:04;99393.03;;;12.32;100.00
40940;BME280;26666;50.156;7.700;2022-11-15T16:04:06;99380.59;;;12.33;100.00
40940;BME280;26666;50.156;7.700;2022-11-15T16:09:12;99376.16;;;12.25;100.00
40940;BME280;26666;50.156;7.700;2022-11-15T16:14:16;99373.50;;;12.09;100.00
40940;BME280;26666;50.156;7.700;2022-11-15T16:19:18;99374.66;;;12.22;100.00
40940;BME280;26666;50.156;7.700;2022-11-15T16:24:20;99369.00;;;12.26;100.00
40940;BME280;26666;50.156;7.700;2022-11-15T16:29:22;99368.84;;;12.27;100.00
40940;BME280;26666;50.156;7.700;2022-11-15T16:34:24;99360.59;;;12.22;100.00
40940;BME280;26666;50.156;7.700;2022-11-15T16:39:31;99358.25;;;12.27;100.00
40940;BME280;26666;50.156;7.700;2022-11-15T16:44:33;99366.72;;;12.22;100.00
40940;BME280;26666;50.156;7.700;2022-11-15T16:49:34;99356.28;;;12.13;100.00
40940;BME280;26666;50.156;7.700;2022-11-15T16:54:36;99356.78;;;12.25;100.00
40940;BME280;26666;50.156;7.700;2022-11-15T16:59:37;99352.66;;;12.22;100.00
40940;BME280;26666;50.156;7.700;2022-11-15T17:04:39;99349.81;;;12.15;100.00
40940;BME280;26666;50.156;7.700;2022-11-15T17:09:41;99347.81;;;12.26;100.00
40940;BME280;26666;50.156;7.700;2022-11-15T17:14:42;99343.03;;;12.29;100.00
40940;BME280;26666;50.156;7.700;2022-11-15T17:19:44;99337.44;;;12.24;100.00
40940;BME280;26666;50.156;7.700;2022-11-15T17:24:45;99335.91;;;12.21;100.00
40940;BME280;26666;50.156;7.700;2022-11-15T17:29:47;99324.34;;;12.22;100.00
40940;BME280;26666;50.156;7.700;2022-11-15T17:34:48;99329.78;;;12.29;100.00
40940;BME280;26666;50.156;7.700;2022-11-15T17:39:50;99322.19;;;12.10;100.00
40940;BME280;26666;50.156;7.700;2022-11-15T17:44:52;99311.41;;;12.28;100.00
40940;BME280;26666;50.156;7.700;2022-11-15T17:49:53;99317.22;;;12.23;100.00
40940;BME280;26666;50.156;7.700;2022-11-15T17:54:55;99313.91;;;12.21;100.00
40940;BME280;26666;50.156;7.700;2022-11-15T17:59:57;99312.28;;;12.20;100.00
40940;BME280;26666;50.156;7.700;2022-11-15T18:04:58;99301.69;;;12.20;100.00
40940;BME280;26666;50.156;7.700;2022-11-15T18:09:59;99300.16;;;12.17;100.00
40940;BME280;26666;50.156;7.700;2022-11-15T18:15:01;99295.88;;;12.16;100.00
40940;BME280;26666;50.156;7.700;2022-11-15T18:20:03;99297.03;;;12.14;100.00
40940;BME280;26666;50.156;7.700;2022-11-15T18:25:05;99292.22;;;12.17;100.00
40940;BME280;26666;50.156;7.700;2022-11-15T18:30:07;99293.56;;;12.13;100.00
40940;BME280;26666;50.156;7.700;2022-11-15T18:35:09;99286.78;;;12.19;100.00
40940;BME280;26666;50.156;7.700;2022-11-15T18:40:11;99276.34;;;12.09;100.00
40940;BME280;26666;50.156;7.700;2022-11-15T18:45:12;99280.19;;;12.07;100.00
40940;BME280;26666;50.156;7.700;2022-11-15T18:50:14;99267.91;;;12.06;100.00
40940;BME280;26666;50.156;7.700;2022-11-15T18:55:15;99266.75;;;12.08;100.00
40940;BME280;26666;50.156;7.700;2022-11-15T19:00:17;99260.63;;;12.16;100.00
40940;BME280;26666;50.156;7.700;2022-11-15T19:05:19;99258.34;;;12.05;100.00
40940;BME280;26666;50.156;7.700;2022-11-15T19:10:21;99249.91;;;12.01;100.00
40940;BME280;26666;50.156;7.700;2022-11-15T19:15:22;99243.94;;;11.99;100.00
40940;BME280;26666;50.156;7.700;2022-11-15T19:20:24;99247.59;;;11.90;100.00
40940;BME280;26666;50.156;7.700;2022-11-15T19:25:25;99241.59;;;11.88;100.00
40940;BME280;26666;50.156;7.700;2022-11-15T19:30:27;99235.50;;;11.95;100.00
40940;BME280;26666;50.156;7.700;2022-11-15T19:35:28;99227.22;;;11.90;100.00
40940;BME280;26666;50.156;7.700;2022-11-15T19:40:31;99228.38;;;11.88;100.00
40940;BME280;26666;50.156;7.700;2022-11-15T19:45:33;99229.88;;;12.07;100.00
40940;BME280;26666;50.156;7.700;2022-11-15T19:50:36;99218.44;;;11.98;100.00
40940;BME280;26666;50.156;7.700;2022-11-15T19:55:37;99215.28;;;11.86;100.00
40940;BME280;26666;50.156;7.700;2022-11-15T20:00:39;99214.31;;;11.87;100.00
40940;BME280;26666;50.156;7.700;2022-11-15T20:05:40;99215.94;;;11.88;100.00
40940;BME280;26666;50.156;7.700;2022-11-15T20:10:42;99211.34;;;11.90;100.00
40940;BME280;26666;50.156;7.700;2022-11-15T20:15:44;99206.19;;;11.89;100.00
40940;BME280;26666;50.156;7.700;2022-11-15T20:20:46;99193.13;;;11.87;100.00
40940;BME280;26666;50.156;7.700;2022-11-15T20:25:47;99183.41;;;11.79;100.00
40940;BME280;26666;50.156;7.700;2022-11-15T20:31:09;99187.66;;;11.89;100.00
40940;BME280;26666;50.156;7.700;2022-11-15T20:36:13;99177.25;;;11.87;100.00
40940;BME280;26666;50.156;7.700;2022-11-15T20:41:15;99176.78;;;11.75;100.00
40940;BME280;26666;50.156;7.700;2022-11-15T20:46:17;99165.72;;;11.72;100.00
40940;BME280;26666;50.156;7.700;2022-11-15T20:51:19;99166.03;;;11.69;100.00
40940;BME280;26666;50.156;7.700;2022-11-15T20:56:20;99171.97;;;11.79;100.00
40940;BME280;26666;50.156;7.700;2022-11-15T21:01:22;99157.09;;;11.78;100.00
40940;BME280;26666;50.156;7.700;2022-11-15T21:06:25;99156.25;;;11.69;100.00
40940;BME280;26666;50.156;7.700;2022-11-15T21:11:27;99154.94;;;11.65;100.00
40940;BME280;26666;50.156;7.700;2022-11-15T21:16:28;99142.72;;;11.64;100.00
40940;BME280;26666;50.156;7.700;2022-11-15T21:21:30;99148.16;;;11.71;100.00
40940;BME280;26666;50.156;7.700;2022-11-15T21:26:32;99140.09;;;11.64;100.00
40940;BME280;26666;50.156;7.700;2022-11-15T21:31:33;99133.63;;;11.58;100.00
40940;BME280;26666;50.156;7.700;2022-11-15T21:36:35;99128.97;;;11.69;100.00
40940;BME280;26666;50.156;7.700;2022-11-15T21:41:36;99125.34;;;11.61;100.00
40940;BME280;26666;50.156;7.700;2022-11-15T21:46:38;99127.19;;;11.61;100.00
40940;BME280;26666;50.156;7.700;2022-11-15T21:51:40;99120.25;;;11.60;100.00
40940;BME280;26666;50.156;7.700;2022-11-15T21:56:42;99118.38;;;11.77;100.00
40940;BME280;26666;50.156;7.700;2022-11-15T22:01:43;99102.53;;;11.69;100.00
40940;BME280;26666;50.156;7.700;2022-11-15T22:06:45;99097.88;;;11.71;100.00
40940;BME280;26666;50.156;7.700;2022-11-15T22:11:47;99093.28;;;11.64;100.00
40940;BME280;26666;50.156;7.700;2022-11-15T22:16:49;99099.25;;;11.58;100.00
40940;BME280;26666;50.156;7.700;2022-11-15T22:21:50;99097.25;;;11.60;100.00
40940;BME280;26666;50.156;7.700;2022-11-15T22:26:52;99080.38;;;11.61;100.00
40940;BME280;26666;50.156;7.700;2022-11-15T22:31:53;99072.94;;;11.65;100.00
40940;BME280;26666;50.156;7.700;2022-11-15T22:36:55;99074.25;;;11.61;100.00
40940;BME280;26666;50.156;7.700;2022-11-15T22:42:16;99068.81;;;11.62;100.00
40940;BME280;26666;50.156;7.700;2022-11-15T22:47:24;99061.84;;;11.61;100.00
40940;BME280;26666;50.156;7.700;2022-11-15T22:52:26;99054.25;;;11.67;100.00
40940;BME280;26666;50.156;7.700;2022-11-15T22:57:27;99055.25;;;11.66;100.00
40940;BME280;26666;50.156;7.700;2022-11-15T23:02:29;99044.34;;;11.60;100.00
40940;BME280;26666;50.156;7.700;2022-11-15T23:07:31;99045.66;;;11.64;100.00
40940;BME280;26666;50.156;7.700;2022-11-15T23:12:32;99039.03;;;11.69;100.00
40940;BME280;26666;50.156;7.700;2022-11-15T23:17:34;99032.72;;;11.78;100.00
40940;BME280;26666;50.156;7.700;2022-11-15T23:22:35;99026.94;;;11.74;100.00
40940;BME280;26666;50.156;7.700;2022-11-15T23:27:37;99032.75;;;11.70;100.00
40940;BME280;26666;50.156;7.700;2022-11-15T23:32:38;99026.31;;;11.64;100.00
40940;BME280;26666;50.156;7.700;2022-11-15T23:37:40;99024.28;;;11.74;100.00
40940;BME280;26666;50.156;7.700;2022-11-15T23:42:42;99021.63;;;11.74;100.00
40940;BME280;26666;50.156;7.700;2022-11-15T23:47:43;99018.88;;;11.68;100.00
40940;BME280;26666;50.156;7.700;2022-11-15T23:52:45;99024.16;;;11.68;100.00
40940;BME280;26666;50.156;7.700;2022-11-15T23:57:46;99020.66;;;11.67;100.00
